Time;durP1;ratioP1;P1;durP2;ratioP2;P2;SDS_P1;SDS_P2;PMS_P1;PMS_P2;Temp;Humidity;BMP_temperature;BMP_pressure;BME280_temperature;BME280_humidity;BME280_pressure;Samples;Min_cycle;Max_cycle;Signal;HPM_P1;HPM_P2
2022/12/14 00:00:40;;;;;;;53.42;25.65;;;-2.30;99.90;;;;;;5094110;28;20118;-69
2022/12/14 00:03:06;;;;;;;44.28;26.20;;;-2.30;99.90;;;;;;5093719;28;20533;-69
2022/12/14 00:05:31;;;;;;;43.92;25.80;;;-2.40;99.90;;;;;;5092464;28;20512;-69
2022/12/14 00:07:57;;;;;;;43.60;24.83;;;-2.40;99.90;;;;;;5094122;28;20127;-69
2022/12/14 00:10:22;;;;;;;41.03;25.65;;;-2.40;99.90;;;;;;5094047;28;20032;-69
2022/12/14 00:12:48;;;;;;;49.45;26.00;;;-2.40;99.90;;;;;;5093828;28;20032;-68
2022/12/14 00:15:14;;;;;;;43.28;24.85;;;-2.40;99.90;;;;;;5093741;28;20188;-69
2022/12/14 00:17:39;;;;;;;45.20;25.70;;;-2.50;99.90;;;;;;5093684;28;20537;-68
2022/12/14 00:20:05;;;;;;;44.80;25.48;;;-2.50;99.90;;;;;;5094006;28;20032;-69
2022/12/14 00:22:31;;;;;;;42.97;24.90;;;-2.50;99.90;;;;;;5093988;28;20054;-68
2022/12/14 00:24:56;;;;;;;43.70;23.80;;;-2.50;99.90;;;;;;5093423;28;20532;-68
2022/12/14 00:27:22;;;;;;;42.75;24.48;;;-2.60;99.90;;;;;;5092325;28;20036;-69
2022/12/14 00:29:47;;;;;;;44.65;25.80;;;-2.60;99.90;;;;;;5093381;28;20499;-69
2022/12/14 00:32:13;;;;;;;42.33;24.48;;;-2.70;99.90;;;;;;5093336;28;20036;-69
2022/12/14 00:34:39;;;;;;;44.42;24.25;;;-2.70;99.90;;;;;;5093568;28;20118;-69
2022/12/14 00:37:04;;;;;;;45.90;25.10;;;-2.80;99.90;;;;;;5093137;28;20390;-69
2022/12/14 00:39:30;;;;;;;43.45;24.27;;;-2.80;99.90;;;;;;5093291;28;20043;-69
2022/12/14 00:41:55;;;;;;;44.47;25.13;;;-2.70;99.90;;;;;;5093325;28;20048;-68
2022/12/14 00:44:21;;;;;;;42.95;25.13;;;-2.80;99.90;;;;;;5093089;28;20463;-68
2022/12/14 00:46:47;;;;;;;46.72;24.85;;;-2.80;99.90;;;;;;5093022;28;20040;-69
2022/12/14 00:49:12;;;;;;;44.45;25.70;;;-2.80;99.90;;;;;;5093207;28;20031;-68
2022/12/14 00:51:38;;;;;;;45.45;24.38;;;-2.80;99.90;;;;;;5093058;28;20399;-69
2022/12/14 00:54:04;;;;;;;42.22;25.45;;;-2.90;99.90;;;;;;5093088;28;20043;-69
2022/12/14 00:56:29;;;;;;;41.85;24.90;;;-2.90;99.90;;;;;;5093254;28;20040;-68
2022/12/14 00:58:55;;;;;;;42.90;24.05;;;-2.90;99.90;;;;;;5093165;28;20888;-69
2022/12/14 01:01:21;;;;;;;46.50;24.88;;;-2.90;99.90;;;;;;5091739;28;20052;-68
2022/12/14 01:03:47;;;;;;;39.22;23.23;;;-2.90;99.90;;;;;;5091329;28;20082;-68
2022/12/14 01:06:20;;;;;;;50.20;25.58;;;-2.90;99.90;;;;;;5092664;28;20052;-69
2022/12/14 01:08:47;;;;;;;41.35;22.95;;;-2.90;99.90;;;;;;5092126;28;20048;-68
2022/12/14 01:11:13;;;;;;;40.45;23.55;;;-3.00;99.90;;;;;;5092722;28;20460;-68
2022/12/14 01:13:40;;;;;;;40.47;23.50;;;-3.10;99.90;;;;;;5092708;28;20111;-68
2022/12/14 01:16:12;;;;;;;43.05;24.23;;;-3.20;99.90;;;;;;5092917;28;20044;-68
2022/12/14 01:18:39;;;;;;;48.88;25.05;;;-3.20;99.90;;;;;;5092638;28;20040;-68
2022/12/14 01:21:11;;;;;;;47.40;25.55;;;-3.20;99.90;;;;;;5092509;28;20036;-68
2022/12/14 01:23:36;;;;;;;44.90;23.05;;;-3.30;99.90;;;;;;5091051;28;20470;-68
2022/12/14 01:26:02;;;;;;;42.60;23.23;;;-3.30;99.90;;;;;;5092182;28;20093;-69
2022/12/14 01:28:28;;;;;;;40.35;23.05;;;-3.20;99.90;;;;;;5092462;28;20044;-68
2022/12/14 01:30:54;;;;;;;39.17;22.92;;;-3.30;99.90;;;;;;5092509;28;20381;-68
2022/12/14 01:33:19;;;;;;;39.88;22.27;;;-3.40;99.90;;;;;;5092191;28;20069;-68
2022/12/14 01:35:45;;;;;;;46.08;24.38;;;-3.40;99.90;;;;;;5090897;28;20059;-68
2022/12/14 01:38:10;;;;;;;42.67;23.48;;;-3.40;99.90;;;;;;5092260;28;20035;-68
2022/12/14 01:40:36;;;;;;;42.35;24.20;;;-3.30;99.90;;;;;;5092201;28;20044;-68
2022/12/14 01:43:02;;;;;;;41.53;24.08;;;-3.30;99.90;;;;;;5092281;28;20691;-68
2022/12/14 01:45:27;;;;;;;45.78;23.55;;;-3.40;99.90;;;;;;5091878;28;20120;-68
2022/12/14 01:48:00;;;;;;;41.95;23.95;;;-3.40;99.90;;;;;;5092015;28;20043;-68
2022/12/14 01:50:34;;;;;;;45.50;23.90;;;-3.50;99.90;;;;;;5092227;28;20036;-68
2022/12/14 01:53:07;;;;;;;43.58;22.80;;;-3.60;99.90;;;;;;5092087;28;20071;-68
2022/12/14 01:55:36;;;;;;;47.03;23.55;;;-3.60;99.90;;;;;;5091920;28;20040;-68
2022/12/14 01:58:05;;;;;;;;;;;-3.60;99.90;;;;;;5092517;28;20048;-68
2022/12/14 02:00:32;;;;;;;36.60;21.73;;;-3.60;99.90;;;;;;5092143;28;19953;-68
2022/12/14 02:03:12;;;;;;;38.80;22.17;;;-3.60;99.90;;;;;;5091939;28;20043;-68
2022/12/14 02:05:42;;;;;;;42.20;23.30;;;-3.60;99.90;;;;;;5091653;28;20469;-68
2022/12/14 02:08:09;;;;;;;41.40;23.00;;;-3.70;99.90;;;;;;5090643;28;20044;-68
2022/12/14 02:10:35;;;;;;;38.38;21.88;;;-3.70;99.90;;;;;;5091905;28;20047;-68
2022/12/14 02:13:21;;;;;;;39.45;22.05;;;-3.80;99.90;;;;;;5091911;28;20028;-68
2022/12/14 02:15:47;;;;;;;40.85;23.23;;;-3.90;99.90;;;;;;5091896;28;20044;-68
2022/12/14 02:18:18;;;;;;;40.00;22.65;;;-3.90;99.90;;;;;;5091771;28;20150;-68
2022/12/14 02:21:15;;;;;;;42.33;23.88;;;-3.90;99.90;;;;;;5093464;28;20088;-68
2022/12/14 02:23:53;;;;;;;38.88;21.30;;;-4.00;99.90;;;;;;5095821;28;20040;-68
2022/12/14 02:26:51;;;;;;;43.90;22.95;;;-4.00;99.90;;;;;;5095794;28;20389;-68
2022/12/14 02:29:23;;;;;;;41.97;22.63;;;-3.90;99.90;;;;;;5095975;28;20432;-68
2022/12/14 02:32:00;;;;;;;40.53;21.63;;;-4.00;99.90;;;;;;5095863;28;20528;-68
2022/12/14 02:34:35;;;;;;;44.03;22.83;;;-4.10;99.90;;;;;;5095732;28;20040;-68
2022/12/14 02:37:26;;;;;;;38.78;22.65;;;-4.20;99.90;;;;;;5095553;28;20502;-68
2022/12/14 02:39:59;;;;;;;39.88;21.80;;;-4.20;99.90;;;;;;5095611;28;20044;-68
2022/12/14 02:42:36;;;;;;;40.20;21.40;;;-4.20;99.90;;;;;;5095569;28;20092;-68
2022/12/14 02:45:02;;;;;;;39.88;22.20;;;-4.30;99.90;;;;;;5095416;28;20075;-68
2022/12/14 02:47:38;;;;;;;40.55;22.20;;;-4.40;99.90;;;;;;5095423;28;20064;-68
2022/12/14 02:50:19;;;;;;;36.42;21.58;;;-4.40;99.90;;;;;;5095604;28;20040;-68
2022/12/14 02:52:47;;;;;;;41.60;23.08;;;-4.40;99.90;;;;;;5095272;28;20043;-68
2022/12/14 02:55:37;;;;;;;38.67;22.52;;;-4.40;99.90;;;;;;5095295;28;20035;-68
2022/12/14 02:58:14;;;;;;;41.95;23.92;;;-4.50;99.90;;;;;;5095247;28;20036;-68
2022/12/14 03:00:40;;;;;;;42.25;22.33;;;-4.50;99.90;;;;;;5094991;28;20062;-68
2022/12/14 03:03:06;;;;;;;39.22;22.92;;;-4.50;99.90;;;;;;5095118;28;20458;-68
2022/12/14 03:05:33;;;;;;;40.38;22.58;;;-4.50;99.90;;;;;;5094877;28;20044;-68
2022/12/14 03:08:05;;;;;;;46.85;23.67;;;-4.50;99.90;;;;;;5095172;28;20044;-68
2022/12/14 03:10:58;;;;;;;36.40;21.05;;;-4.50;99.90;;;;;;5094944;28;20036;-68
2022/12/14 03:13:29;;;;;;;41.10;22.05;;;-4.50;99.90;;;;;;5093404;28;20044;-68
2022/12/14 03:16:26;;;;;;;38.72;21.25;;;-4.50;99.90;;;;;;5095118;28;20044;-68
2022/12/14 03:19:10;;;;;;;40.35;21.98;;;-4.60;99.90;;;;;;5094900;28;20122;-68
2022/12/14 03:21:39;;;;;;;39.28;22.13;;;-4.50;99.90;;;;;;5094981;28;20436;-68
2022/12/14 03:24:09;;;;;;;43.30;22.80;;;-4.50;99.90;;;;;;5094723;28;20127;-68
2022/12/14 03:26:47;;;;;;;39.28;21.30;;;-4.50;99.90;;;;;;5094795;28;20063;-68
2022/12/14 03:29:19;;;;;;;38.88;22.17;;;-4.50;99.90;;;;;;5093620;28;20432;-68
2022/12/14 03:32:20;;;;;;;37.92;22.48;;;-4.50;99.90;;;;;;5093998;28;20386;-68
2022/12/14 03:34:57;;;;;;;38.83;21.87;;;-4.50;99.90;;;;;;5052044;28;20049;-68
2022/12/14 03:37:51;;;;;;;39.20;21.45;;;-4.50;99.90;;;;;;5052018;28;20446;-68
2022/12/14 03:40:17;;;;;;;37.78;21.30;;;-4.50;99.90;;;;;;5052220;28;20060;-68
2022/12/14 03:43:08;;;;;;;39.78;20.98;;;-4.60;99.90;;;;;;5052041;28;20045;-68
2022/12/14 03:45:39;;;;;;;35.15;21.40;;;-4.60;99.90;;;;;;5051804;28;20140;-67
2022/12/14 03:48:47;;;;;;;41.97;23.33;;;-4.60;99.90;;;;;;5051812;28;20565;-68
2022/12/14 03:51:34;;;;;;;38.75;22.55;;;-4.50;99.90;;;;;;5035340;28;20076;-68
2022/12/14 03:54:08;;;;;;;40.97;22.52;;;-4.60;99.90;;;;;;5051799;28;20055;-68
2022/12/14 03:56:47;;;;;;;38.70;22.15;;;-4.60;99.90;;;;;;5051675;28;20049;-68
2022/12/14 03:59:25;;;;;;;37.67;22.17;;;-4.60;99.90;;;;;;5051784;28;20045;-67
2022/12/14 04:02:00;;;;;;;39.30;22.77;;;-4.60;99.90;;;;;;5051708;28;20053;-68
2022/12/14 04:04:33;;;;;;;38.58;21.63;;;-4.60;99.90;;;;;;5034805;28;20844;-68
2022/12/14 04:07:29;;;;;;;41.03;22.30;;;-4.60;99.90;;;;;;5051582;28;20771;-68
2022/12/14 04:19:08;;;;;;;41.88;22.60;;;-4.60;99.90;;;;;;5051277;28;20055;-67
2022/12/14 04:21:58;;;;;;;43.72;22.52;;;-4.70;99.90;;;;;;5051397;28;20059;-67
2022/12/14 04:27:34;;;;;;;42.72;21.27;;;-4.80;99.90;;;;;;5051239;28;20052;-67
2022/12/14 04:30:01;;;;;;;40.72;22.58;;;-4.70;99.90;;;;;;5051137;28;20071;-67
2022/12/14 04:32:27;;;;;;;42.13;22.83;;;-4.80;99.90;;;;;;5051471;28;20130;-67
2022/12/14 04:35:05;;;;;;;38.20;21.67;;;-4.80;99.90;;;;;;5051321;28;21020;-67
2022/12/14 04:37:34;;;;;;;41.28;21.58;;;-4.80;99.90;;;;;;5051156;28;20044;-67
2022/12/14 04:40:09;;;;;;;45.05;22.00;;;-4.80;99.90;;;;;;5034563;28;20076;-67
2022/12/14 04:42:47;;;;;;;41.10;22.65;;;-4.80;99.90;;;;;;5051459;28;20045;-66
2022/12/14 04:45:30;;;;;;;40.33;22.38;;;-5.00;99.90;;;;;;5033242;28;20045;-67
2022/12/14 04:48:11;;;;;;;40.22;23.10;;;-5.00;99.90;;;;;;5051016;28;20041;-68
2022/12/14 04:50:43;;;;;;;45.28;22.42;;;-5.00;99.90;;;;;;5087076;28;20406;-67
2022/12/14 04:53:15;;;;;;;43.22;23.83;;;-5.00;99.90;;;;;;5093195;28;20402;-67
2022/12/14 04:55:59;;;;;;;44.80;23.10;;;-5.10;99.90;;;;;;5092164;28;20079;-67
2022/12/14 04:58:27;;;;;;;39.80;21.92;;;-5.10;99.90;;;;;;5093153;28;20166;-67
2022/12/14 05:01:08;;;;;;;42.72;21.38;;;-5.10;99.90;;;;;;5092968;28;20499;-67
2022/12/14 05:03:38;;;;;;;43.80;22.17;;;-5.00;99.90;;;;;;5092080;28;20355;-67
2022/12/14 05:06:49;;;;;;;41.88;22.25;;;-5.10;99.90;;;;;;5092596;28;20051;-67
2022/12/14 05:09:26;;;;;;;39.90;20.75;;;-5.10;99.90;;;;;;5050223;28;20051;-67
2022/12/14 05:11:56;;;;;;;42.00;20.67;;;-5.10;99.90;;;;;;5050509;28;20037;-67
2022/12/14 05:14:44;;;;;;;41.10;20.65;;;-5.10;99.90;;;;;;5050381;28;20036;-67
2022/12/14 05:17:10;;;;;;;36.90;20.65;;;-5.10;99.90;;;;;;5050341;28;20471;-67
2022/12/14 05:19:42;;;;;;;39.75;21.75;;;-5.10;99.90;;;;;;5050295;28;20111;-67
2022/12/14 05:22:08;;;;;;;41.85;22.00;;;-5.00;99.90;;;;;;5033855;28;20813;-67
2022/12/14 05:24:34;;;;;;;44.42;22.85;;;-5.00;99.90;;;;;;5050259;28;20099;-67
2022/12/14 05:26:59;;;;;;;41.22;22.08;;;-5.00;99.90;;;;;;5050233;28;20179;-67
2022/12/14 05:29:25;;;;;;;45.35;22.30;;;-5.00;99.90;;;;;;5050267;28;20060;-67
2022/12/14 05:31:51;;;;;;;41.95;22.20;;;-5.00;99.90;;;;;;5050081;28;20045;-67
2022/12/14 05:34:17;;;;;;;46.90;23.67;;;-4.90;99.90;;;;;;5050165;28;20568;-67
2022/12/14 05:36:42;;;;;;;43.75;22.08;;;-4.90;99.90;;;;;;5050116;28;20041;-67
2022/12/14 05:39:08;;;;;;;44.67;23.33;;;-4.90;99.90;;;;;;5049935;28;20085;-67
2022/12/14 05:41:33;;;;;;;45.08;22.20;;;-4.90;99.90;;;;;;5049520;28;20037;-66
2022/12/14 05:43:59;;;;;;;42.22;22.40;;;-4.90;99.90;;;;;;5033194;28;20061;-67
2022/12/14 05:46:25;;;;;;;44.42;22.27;;;-4.90;99.90;;;;;;5089692;28;20105;-67
2022/12/14 05:48:50;;;;;;;45.70;22.95;;;-5.00;99.90;;;;;;5092267;28;20062;-67
2022/12/14 05:51:16;;;;;;;41.70;22.25;;;-5.20;99.90;;;;;;5091646;28;20036;-67
2022/12/14 05:53:42;;;;;;;46.20;22.92;;;-5.20;99.90;;;;;;5089219;28;20031;-67
2022/12/14 05:56:09;;;;;;;47.35;24.00;;;-5.10;99.90;;;;;;5089697;28;20126;-67
2022/12/14 05:58:36;;;;;;;44.20;21.60;;;-5.20;99.90;;;;;;5092245;28;20113;-67
2022/12/14 06:01:04;;;;;;;44.75;22.23;;;-5.20;99.90;;;;;;5091923;28;20043;-67
2022/12/14 06:03:30;;;;;;;43.58;22.30;;;-5.20;99.90;;;;;;5092080;28;20044;-67
2022/12/14 06:06:08;;;;;;;46.85;22.60;;;-5.20;99.90;;;;;;5091812;28;20121;-67
2022/12/14 06:08:40;;;;;;;40.45;21.02;;;-5.40;99.90;;;;;;5092048;28;20073;-67
2022/12/14 06:11:12;;;;;;;43.03;22.27;;;-5.40;99.90;;;;;;5091976;28;20518;-67
2022/12/14 06:13:39;;;;;;;43.53;22.73;;;-5.50;99.90;;;;;;5091969;28;20062;-66
2022/12/14 06:16:19;;;;;;;48.65;24.00;;;-5.50;99.90;;;;;;5091875;28;20047;-66
2022/12/14 06:18:48;;;;;;;43.05;23.70;;;-5.50;99.90;;;;;;5091846;28;20047;-67
2022/12/14 06:21:15;;;;;;;39.90;23.20;;;-5.50;99.90;;;;;;5091661;28;20044;-66
2022/12/14 06:23:41;;;;;;;45.53;22.55;;;-5.50;99.90;;;;;;5091680;28;20543;-67
2022/12/14 06:26:08;;;;;;;39.20;21.73;;;-5.50;99.90;;;;;;5091821;28;20036;-66
2022/12/14 06:28:35;;;;;;;44.92;23.08;;;-5.50;99.90;;;;;;5091755;28;20039;-66
2022/12/14 06:31:01;;;;;;;43.83;21.13;;;-5.50;99.90;;;;;;5091629;28;20039;-66
2022/12/14 06:33:28;;;;;;;42.65;22.25;;;-5.50;99.90;;;;;;5091634;28;20528;-66
2022/12/14 06:35:54;;;;;;;44.22;22.52;;;-5.50;99.90;;;;;;5091510;28;20398;-66
2022/12/14 06:38:20;;;;;;;43.28;22.88;;;-5.60;99.90;;;;;;5091754;28;20040;-67
2022/12/14 06:40:46;;;;;;;39.15;20.92;;;-5.60;99.90;;;;;;5091653;28;20051;-66
2022/12/14 06:43:11;;;;;;;48.60;22.70;;;-5.50;99.90;;;;;;5091540;28;20514;-67
2022/12/14 06:45:37;;;;;;;41.17;20.30;;;-5.60;99.90;;;;;;5091672;28;20083;-66
2022/12/14 06:48:03;;;;;;;42.13;21.48;;;-5.60;99.90;;;;;;5091683;28;20390;-66
2022/12/14 06:50:29;;;;;;;40.90;22.13;;;-5.60;99.90;;;;;;5091543;28;20535;-66
2022/12/14 06:52:55;;;;;;;43.60;22.80;;;-5.60;99.90;;;;;;5091638;28;20458;-66
2022/12/14 06:55:24;;;;;;;43.50;22.73;;;-5.70;99.90;;;;;;5091474;28;20402;-67
2022/12/14 06:57:54;;;;;;;;;;;-5.70;99.90;;;;;;5092069;28;20044;-66
2022/12/14 07:00:21;;;;;;;44.22;22.00;;;-5.60;99.90;;;;;;5091541;28;19916;-67
2022/12/14 07:02:47;;;;;;;42.08;22.00;;;-5.70;99.90;;;;;;5091502;28;20371;-66
2022/12/14 07:05:13;;;;;;;39.83;21.25;;;-5.60;99.90;;;;;;5091157;28;20056;-66
2022/12/14 07:07:39;;;;;;;49.47;22.40;;;-5.80;99.90;;;;;;5092873;28;20401;-66
2022/12/14 07:10:07;;;;;;;45.78;23.52;;;-5.70;99.90;;;;;;5095023;28;20035;-66
2022/12/14 07:12:33;;;;;;;47.00;23.45;;;-5.80;99.90;;;;;;5095065;28;20088;-66
2022/12/14 07:14:58;;;;;;;41.05;22.50;;;-5.60;99.90;;;;;;5095275;28;20126;-66
2022/12/14 07:17:24;;;;;;;41.47;21.23;;;-5.60;99.90;;;;;;5095122;28;20382;-66
2022/12/14 07:19:50;;;;;;;43.00;22.45;;;-5.50;99.90;;;;;;5095027;28;20086;-66
2022/12/14 07:22:16;;;;;;;47.85;23.05;;;-5.50;99.90;;;;;;5095028;28;20172;-66
2022/12/14 07:24:42;;;;;;;48.03;23.13;;;-5.60;99.90;;;;;;5094820;28;20130;-66
2022/12/14 07:27:07;;;;;;;48.75;22.70;;;-5.70;99.90;;;;;;5077361;28;20186;-67
2022/12/14 07:29:33;;;;;;;48.92;22.98;;;-5.60;99.90;;;;;;5095023;28;20470;-67
2022/12/14 07:31:59;;;;;;;42.22;21.10;;;-5.70;99.90;;;;;;5095409;28;20040;-67
2022/12/14 07:34:25;;;;;;;43.20;21.85;;;-5.70;99.90;;;;;;5094304;28;20051;-66
2022/12/14 07:36:52;;;;;;;44.47;22.67;;;-5.70;99.90;;;;;;5093960;28;20466;-67
2022/12/14 07:39:18;;;;;;;43.75;22.13;;;-5.70;99.90;;;;;;5093977;28;20545;-67
2022/12/14 07:41:46;;;;;;;42.53;20.65;;;-5.50;99.90;;;;;;5095232;28;20417;-66
2022/12/14 07:44:12;;;;;;;38.13;21.52;;;-5.50;99.90;;;;;;5095214;28;20044;-66
2022/12/14 07:46:38;;;;;;;45.60;24.65;;;-5.60;99.90;;;;;;5095247;28;20035;-66
2022/12/14 07:49:03;;;;;;;44.17;21.45;;;-5.60;99.90;;;;;;5094871;28;20424;-66
2022/12/14 07:51:32;;;;;;;41.17;22.23;;;-5.70;99.90;;;;;;5094754;28;20040;-66
2022/12/14 07:53:59;;;;;;;44.28;21.60;;;-5.80;99.90;;;;;;5094557;28;20036;-66
2022/12/14 07:56:28;;;;;;;44.60;23.10;;;-5.80;99.90;;;;;;5094704;28;20394;-66
2022/12/14 07:58:55;;;;;;;43.10;20.98;;;-5.70;99.90;;;;;;5094661;28;20036;-66
2022/12/14 08:01:23;;;;;;;44.65;21.25;;;-5.70;99.90;;;;;;5095046;28;20044;-66
2022/12/14 08:03:55;;;;;;;42.75;22.42;;;-5.70;99.90;;;;;;5094807;28;20045;-66
2022/12/14 08:06:23;;;;;;;45.10;23.60;;;-5.60;99.90;;;;;;5094409;28;20048;-66
2022/12/14 08:08:49;;;;;;;43.50;24.30;;;-5.50;99.90;;;;;;5094636;28;20043;-66
2022/12/14 08:11:16;;;;;;;51.78;25.88;;;-5.50;99.90;;;;;;5094508;28;20470;-66
2022/12/14 08:13:42;;;;;;;58.97;30.58;;;-5.50;99.90;;;;;;5094596;28;20474;-66
2022/12/14 08:16:11;;;;;;;57.90;29.17;;;-5.40;99.90;;;;;;5094621;28;20046;-66
2022/12/14 08:18:37;;;;;;;50.38;25.30;;;-5.40;99.90;;;;;;5094264;28;20040;-66
2022/12/14 08:21:04;;;;;;;51.88;24.98;;;-5.30;99.90;;;;;;5094272;28;20096;-67
2022/12/14 08:23:30;;;;;;;43.55;22.73;;;-5.20;99.90;;;;;;5094292;28;20036;-67
2022/12/14 08:25:57;;;;;;;44.72;23.00;;;-5.30;99.90;;;;;;5094305;28;20507;-67
2022/12/14 08:28:24;;;;;;;43.15;22.63;;;-5.30;99.90;;;;;;5094203;28;20077;-67
2022/12/14 08:30:50;;;;;;;47.83;23.92;;;-5.20;99.90;;;;;;5092818;28;20039;-67
2022/12/14 08:33:17;;;;;;;50.70;24.30;;;-5.20;99.90;;;;;;5093840;28;20036;-67
2022/12/14 08:35:43;;;;;;;42.97;24.27;;;-5.20;99.90;;;;;;5093650;28;20051;-67
2022/12/14 08:38:09;;;;;;;53.17;25.90;;;-5.20;99.90;;;;;;5093949;28;20040;-67
2022/12/14 08:40:35;;;;;;;42.05;23.02;;;-5.00;99.90;;;;;;5094063;28;20036;-67
2022/12/14 08:43:01;;;;;;;50.92;23.63;;;-5.00;99.90;;;;;;5093862;28;20070;-67
2022/12/14 08:45:26;;;;;;;47.53;22.58;;;-4.90;99.90;;;;;;5093531;28;20071;-67
2022/12/14 08:47:55;;;;;;;43.75;23.67;;;-4.80;99.90;;;;;;5093597;28;20028;-67
2022/12/14 08:50:20;;;;;;;45.90;23.33;;;-4.70;99.90;;;;;;5094229;28;20040;-67
2022/12/14 08:52:47;;;;;;;48.45;23.75;;;-4.50;99.90;;;;;;5094043;28;20036;-67
2022/12/14 08:55:13;;;;;;;42.60;22.65;;;-4.50;99.90;;;;;;5094243;28;20080;-67
2022/12/14 08:57:38;;;;;;;41.55;22.05;;;-4.30;99.90;;;;;;5094291;28;20064;-67
2022/12/14 09:00:04;;;;;;;43.13;22.30;;;-4.20;99.90;;;;;;5094104;28;20043;-66
2022/12/14 09:02:30;;;;;;;44.97;22.70;;;-4.10;99.90;;;;;;5094076;28;20367;-67
2022/12/14 09:04:55;;;;;;;42.90;21.38;;;-4.10;99.90;;;;;;5093082;28;20059;-66
2022/12/14 09:07:21;;;;;;;39.95;21.27;;;-4.10;99.90;;;;;;5094176;28;20048;-66
2022/12/14 09:09:47;;;;;;;38.00;20.52;;;-4.10;99.90;;;;;;5094210;28;20058;-66
2022/12/14 09:12:12;;;;;;;45.33;22.38;;;-4.00;99.90;;;;;;5094337;28;20031;-66
2022/12/14 09:14:38;;;;;;;39.30;21.40;;;-3.90;99.90;;;;;;5094287;28;20132;-66
2022/12/14 09:17:03;;;;;;;41.33;20.65;;;-3.90;99.90;;;;;;5094283;28;20048;-66
2022/12/14 09:19:29;;;;;;;40.17;20.60;;;-3.90;99.90;;;;;;5092830;28;20197;-66
2022/12/14 09:21:55;;;;;;;42.08;21.42;;;-3.80;99.90;;;;;;5094139;28;20094;-66
2022/12/14 09:24:23;;;;;;;41.72;21.65;;;-3.70;99.90;;;;;;5092872;28;20058;-66
2022/12/14 09:26:49;;;;;;;36.13;20.42;;;-3.70;99.90;;;;;;5092515;28;20078;-67
2022/12/14 09:29:16;;;;;;;40.13;20.95;;;-3.60;99.90;;;;;;5094015;28;20061;-66
2022/12/14 09:31:42;;;;;;;39.53;20.73;;;-3.60;99.90;;;;;;5093820;28;20048;-67
2022/12/14 09:34:09;;;;;;;38.53;20.40;;;-3.50;99.90;;;;;;5094469;28;20071;-66
2022/12/14 09:36:35;;;;;;;44.38;23.63;;;-3.40;99.90;;;;;;5094159;28;20359;-66
2022/12/14 09:39:02;;;;;;;40.55;22.45;;;-3.40;99.90;;;;;;5094267;28;20074;-67
2022/12/14 09:41:34;;;;;;;43.75;21.30;;;-3.30;99.90;;;;;;5093921;28;20386;-67
2022/12/14 09:44:32;;;;;;;47.08;21.85;;;-3.20;99.90;;;;;;5093904;28;20500;-66
2022/12/14 09:47:42;;;;;;;42.55;21.15;;;-3.10;99.90;;;;;;5094102;28;20040;-65
2022/12/14 09:50:17;;;;;;;38.60;20.33;;;-2.90;99.90;;;;;;5051696;28;20045;-65
2022/12/14 09:52:51;;;;;;;40.38;21.77;;;-2.80;99.90;;;;;;5051604;28;20049;-65
2022/12/14 09:55:40;;;;;;;45.70;22.30;;;-2.60;99.90;;;;;;5051696;28;20462;-65
2022/12/14 09:58:25;;;;;;;41.00;22.55;;;-2.40;99.90;;;;;;5051579;28;20041;-65
2022/12/14 10:00:57;;;;;;;41.72;20.88;;;-2.40;99.90;;;;;;5051659;28;20053;-66
2022/12/14 10:03:45;;;;;;;38.50;21.42;;;-2.30;99.90;;;;;;5051354;28;20048;-65
2022/12/14 10:06:22;;;;;;;39.97;20.20;;;-2.20;99.90;;;;;;5034688;28;20049;-65
2022/12/14 10:09:02;;;;;;;39.08;20.35;;;-2.10;99.90;;;;;;5051502;28;20060;-65
2022/12/14 10:11:30;;;;;;;35.17;19.20;;;-2.10;99.90;;;;;;5051386;28;20044;-67
2022/12/14 10:14:14;;;;;;;34.37;18.97;;;-2.00;99.90;;;;;;5034772;28;20479;-65
2022/12/14 10:17:00;;;;;;;34.55;20.17;;;-2.00;99.90;;;;;;5051418;28;20618;-65
2022/12/14 10:19:25;;;;;;;34.75;18.70;;;-1.90;99.90;;;;;;5051340;28;20045;-65
2022/12/14 10:22:00;;;;;;;37.13;19.63;;;-1.90;99.90;;;;;;5051565;28;20121;-65
2022/12/14 10:24:47;;;;;;;36.15;19.10;;;-1.90;99.90;;;;;;5053416;28;20049;-66
2022/12/14 10:27:21;;;;;;;37.65;20.42;;;-1.90;99.90;;;;;;5093393;28;20036;-66
2022/12/14 10:30:07;;;;;;;34.50;19.13;;;-1.90;99.90;;;;;;5092261;28;20497;-65
2022/12/14 10:32:32;;;;;;;40.35;18.88;;;-1.90;99.90;;;;;;5093860;28;20057;-66
2022/12/14 10:35:14;;;;;;;31.10;17.73;;;-1.90;99.90;;;;;;5093435;28;20123;-65
2022/12/14 10:37:43;;;;;;;35.80;19.98;;;-1.80;99.90;;;;;;5092960;28;20086;-65
2022/12/14 10:40:09;;;;;;;36.15;20.40;;;-1.80;99.90;;;;;;5093679;28;20044;-66
2022/12/14 10:42:59;;;;;;;35.25;19.13;;;-1.70;99.90;;;;;;5096818;28;20092;-66
2022/12/14 10:45:49;;;;;;;33.30;17.45;;;-1.80;99.90;;;;;;5096186;28;20486;-66
2022/12/14 10:48:39;;;;;;;37.67;19.67;;;-1.80;99.90;;;;;;5097763;28;20040;-66
2022/12/14 10:51:33;;;;;;;36.13;19.63;;;-1.60;99.90;;;;;;5097989;28;20047;-66
2022/12/14 10:54:16;;;;;;;32.47;18.75;;;-1.40;99.90;;;;;;5096445;28;20047;-66
2022/12/14 10:56:43;;;;;;;33.13;18.55;;;-1.40;99.90;;;;;;5097540;28;20044;-66
2022/12/14 10:59:35;;;;;;;34.17;17.40;;;-1.30;99.90;;;;;;5097421;28;20047;-66
2022/12/14 11:02:07;;;;;;;32.08;16.98;;;-1.20;99.90;;;;;;5054970;28;20056;-66
2022/12/14 11:04:37;;;;;;;31.05;17.88;;;-1.10;99.90;;;;;;5021405;28;20052;-66
2022/12/14 11:07:06;;;;;;;29.20;17.33;;;-1.10;99.90;;;;;;5055215;28;20053;-66
2022/12/14 11:09:32;;;;;;;28.40;17.48;;;-1.10;99.90;;;;;;5054713;28;20041;-66
2022/12/14 11:12:20;;;;;;;29.02;16.48;;;-1.00;99.90;;;;;;5054558;28;20114;-66
2022/12/14 11:14:58;;;;;;;30.48;16.67;;;-0.90;99.90;;;;;;4975826;28;20397;-66
2022/12/14 11:17:36;;;;;;;28.73;16.45;;;-0.80;99.90;;;;;;4975639;28;20629;-66
2022/12/14 11:20:24;;;;;;;26.90;15.73;;;-0.70;99.90;;;;;;4975680;28;20073;-66
2022/12/14 11:22:57;;;;;;;29.45;16.17;;;-0.70;99.90;;;;;;4976104;28;20046;-66
2022/12/14 11:25:35;;;;;;;29.17;15.68;;;-0.60;99.90;;;;;;4959469;28;20578;-66
2022/12/14 11:28:37;;;;;;;30.52;16.98;;;-0.50;99.90;;;;;;4959324;28;20049;-66
2022/12/14 11:31:03;;;;;;;33.50;16.85;;;-0.50;99.90;;;;;;4975433;28;20046;-66
2022/12/14 11:33:54;;;;;;;31.35;17.42;;;-0.40;99.90;;;;;;4975513;28;20100;-66
2022/12/14 11:36:40;;;;;;;28.20;16.85;;;-0.20;99.90;;;;;;4974889;28;20043;-66
2022/12/14 11:39:21;;;;;;;32.75;16.55;;;-0.10;99.90;;;;;;5008450;28;20496;-66
2022/12/14 11:41:49;;;;;;;28.67;17.52;;;0.10;99.90;;;;;;5033840;28;20044;-66
2022/12/14 11:44:15;;;;;;;28.60;16.97;;;0.40;99.90;;;;;;5033774;28;20073;-66
2022/12/14 11:46:57;;;;;;;26.52;15.05;;;0.40;99.90;;;;;;5033945;28;20462;-65
2022/12/14 11:49:26;;;;;;;26.08;15.82;;;0.50;99.90;;;;;;5033804;28;20091;-66
2022/12/14 11:52:03;;;;;;;24.52;15.65;;;0.70;99.90;;;;;;5065528;28;20094;-66
2022/12/14 11:54:39;;;;;;;25.00;15.55;;;0.80;99.90;;;;;;5094431;28;20119;-66
2022/12/14 11:57:13;;;;;;;31.33;16.35;;;1.00;99.90;;;;;;5095919;28;20048;-65
2022/12/14 12:00:11;;;;;;;28.77;16.92;;;0.90;99.90;;;;;;5095442;28;20036;-65
2022/12/14 12:02:45;;;;;;;23.95;15.52;;;1.00;99.90;;;;;;5036658;28;20487;-65
2022/12/14 12:05:19;;;;;;;24.80;14.95;;;0.80;99.90;;;;;;5036679;28;20507;-65
2022/12/14 12:07:54;;;;;;;24.98;14.18;;;0.80;99.90;;;;;;5053882;28;20048;-66
2022/12/14 12:10:40;;;;;;;22.83;14.15;;;0.80;99.90;;;;;;5053885;28;20039;-66
2022/12/14 12:13:17;;;;;;;23.98;14.43;;;0.60;99.90;;;;;;5053457;28;20045;-66
2022/12/14 12:15:55;;;;;;;23.42;14.25;;;0.50;99.90;;;;;;5053294;28;20055;-66
2022/12/14 12:18:42;;;;;;;24.17;14.48;;;0.50;99.90;;;;;;5052981;28;20057;-66
2022/12/14 12:21:07;;;;;;;24.92;14.60;;;0.30;99.90;;;;;;5052871;28;20045;-66
2022/12/14 12:23:48;;;;;;;21.75;13.40;;;0.30;99.90;;;;;;5052593;28;20045;-66
2022/12/14 12:26:22;;;;;;;22.92;14.27;;;0.20;99.90;;;;;;5051975;28;20578;-66
2022/12/14 12:28:57;;;;;;;25.70;14.55;;;0.20;99.90;;;;;;5052146;28;20037;-66
2022/12/14 12:31:28;;;;;;;23.85;14.45;;;0.10;99.90;;;;;;5052838;28;20041;-66
2022/12/14 12:34:08;;;;;;;23.02;14.00;;;0.10;99.90;;;;;;5052768;28;20041;-67
2022/12/14 12:36:36;;;;;;;21.02;12.80;;;0.10;99.90;;;;;;5052880;28;20032;-66
2022/12/14 12:39:17;;;;;;;22.90;13.32;;;0.00;99.90;;;;;;5088375;28;20043;-66
2022/12/14 12:42:26;;;;;;;23.20;13.05;;;0.00;99.90;;;;;;5095123;28;20036;-66
2022/12/14 12:45:01;;;;;;;21.42;12.52;;;-0.10;99.90;;;;;;5052230;28;20055;-66
2022/12/14 12:47:39;;;;;;;23.02;12.93;;;-0.10;99.90;;;;;;5052349;28;20198;-66
2022/12/14 12:50:15;;;;;;;24.67;13.95;;;0.00;99.90;;;;;;5052063;28;20049;-67
2022/12/14 12:52:54;;;;;;;23.77;14.13;;;-0.20;99.90;;;;;;5052308;28;20084;-67
2022/12/14 12:55:23;;;;;;;20.60;12.37;;;-0.20;99.90;;;;;;5050754;28;20049;-66
2022/12/14 12:57:53;;;;;;;23.90;13.20;;;-0.20;99.90;;;;;;5051121;28;20120;-67
2022/12/14 13:00:24;;;;;;;23.08;13.35;;;-0.20;99.90;;;;;;5052302;28;20045;-66
2022/12/14 13:03:04;;;;;;;24.00;13.32;;;-0.20;99.90;;;;;;5052311;28;20395;-66
2022/12/14 13:05:33;;;;;;;22.33;13.13;;;-0.20;99.90;;;;;;5051202;28;20095;-66